createdAt,value
2018-08-23T00:00:56.729Z,27.77
2018-08-23T00:04:06.243Z,28.97
2018-08-23T00:07:15.259Z,32.03
2018-08-23T00:10:19.506Z,35.17
2018-08-23T00:13:24.027Z,32.97
2018-08-23T00:16:35.158Z,35.07
2018-08-23T00:19:39.416Z,33.37
2018-08-23T00:22:43.912Z,33.53
2018-08-23T00:25:48.131Z,34.17
2018-08-23T00:28:52.395Z,32.70
2018-08-23T00:31:59.383Z,31.43
2018-08-23T00:35:03.643Z,33.70
2018-08-23T00:38:08.527Z,32.73
2018-08-23T00:41:12.765Z,31.47
2018-08-23T00:44:17.004Z,29.23
2018-08-23T00:47:23.498Z,27.77
2018-08-23T00:50:48.945Z,29.23
2018-08-23T00:54:05.060Z,31.20
2018-08-23T00:57:09.254Z,30.00
2018-08-23T01:00:18.018Z,30.47
2018-08-23T01:03:22.305Z,33.40
2018-08-23T01:06:43.244Z,34.27
2018-08-23T01:09:47.506Z,35.63
2018-08-23T01:13:00.657Z,37.10
2018-08-23T01:16:04.913Z,37.00
2018-08-23T01:20:16.969Z,37.93
2018-08-23T01:23:21.394Z,38.23
2018-08-23T01:26:25.617Z,37.47
2018-08-23T01:29:31.389Z,34.03
2018-08-23T01:32:35.613Z,38.10
2018-08-23T01:35:41.885Z,34.63
2018-08-23T01:38:46.113Z,35.27
2018-08-23T01:41:50.375Z,37.27
2018-08-23T01:44:54.596Z,38.70
2018-08-23T01:47:58.819Z,35.47
2018-08-23T01:51:03.089Z,36.50
2018-08-23T01:54:07.338Z,30.43
2018-08-23T01:57:11.581Z,33.40
2018-08-23T02:00:20.036Z,32.07
2018-08-23T02:03:24.266Z,30.43
2018-08-23T02:06:35.046Z,30.13
2018-08-23T02:09:39.290Z,29.30
2018-08-23T02:12:48.874Z,26.77
2018-08-23T02:15:53.113Z,29.27
2018-08-23T02:18:57.329Z,29.20
2018-08-23T02:22:01.559Z,26.97
2018-08-23T02:25:06.380Z,27.07
2018-08-23T02:28:11.697Z,26.77
2018-08-23T02:31:16.011Z,24.47
2018-08-23T02:34:20.277Z,25.83
2018-08-23T02:37:24.818Z,25.83
2018-08-23T02:40:29.102Z,25.73
2018-08-23T02:43:33.345Z,26.60
2018-08-23T02:46:37.600Z,25.23
2018-08-23T02:49:44.404Z,24.37
2018-08-23T02:52:48.697Z,23.73
2018-08-23T02:55:53.858Z,21.17
2018-08-23T02:59:02.282Z,21.87
2018-08-23T03:02:11.468Z,19.43
2018-08-23T03:05:19.864Z,19.83
2018-08-23T03:08:41.237Z,19.93
2018-08-23T03:11:48.794Z,20.00
2018-08-23T03:14:53.358Z,18.67
2018-08-23T03:17:57.731Z,19.10
2018-08-23T03:21:07.350Z,17.97
2018-08-23T03:24:11.845Z,21.00
2018-08-23T03:27:16.154Z,20.93
2018-08-23T03:30:20.935Z,20.63
2018-08-23T03:33:25.303Z,21.30
2018-08-23T03:36:29.654Z,20.87
2018-08-23T03:39:33.905Z,20.63
2018-08-23T03:42:38.181Z,21.43
2018-08-23T03:45:42.433Z,20.80
2018-08-23T03:48:51.790Z,20.37
2018-08-23T03:51:56.062Z,20.00
2018-08-23T03:55:01.636Z,21.73
2018-08-23T03:58:05.994Z,23.67
2018-08-23T04:01:14.257Z,22.07
2018-08-23T04:04:18.528Z,22.13
2018-08-23T04:07:22.789Z,21.20
2018-08-23T04:10:27.062Z,21.90
2018-08-23T04:13:31.339Z,21.90
2018-08-23T04:16:35.601Z,24.63
2018-08-23T04:19:43.161Z,23.90
2018-08-23T04:22:47.523Z,22.70
2018-08-23T04:25:51.723Z,24.43
2018-08-23T04:28:55.993Z,24.53
2018-08-23T04:32:00.361Z,23.73
2018-08-23T04:35:12.212Z,23.53
2018-08-23T04:38:16.470Z,24.70
2018-08-23T04:41:20.727Z,22.80
2018-08-23T04:44:25.011Z,23.20
2018-08-23T04:47:29.286Z,22.77
2018-08-23T04:50:33.601Z,23.10
2018-08-23T04:53:37.854Z,23.50
2018-08-23T04:56:42.121Z,22.77
2018-08-23T04:59:46.387Z,21.77
2018-08-23T05:02:50.726Z,22.60
2018-08-23T05:05:54.981Z,20.60
2018-08-23T05:08:59.233Z,22.90
2018-08-23T05:12:03.485Z,22.47
2018-08-23T05:15:07.761Z,22.17
2018-08-23T05:18:12.064Z,21.53
2018-08-23T05:21:16.345Z,20.63
2018-08-23T05:24:23.809Z,21.10
2018-08-23T05:27:28.069Z,19.43
2018-08-23T05:30:32.320Z,21.63
2018-08-23T05:33:36.559Z,22.00
2018-08-23T05:36:40.837Z,21.53
2018-08-23T05:39:52.870Z,18.70
2018-08-23T05:42:57.402Z,18.63
2018-08-23T05:46:02.310Z,20.37
2018-08-23T05:49:06.998Z,18.00
2018-08-23T05:52:11.261Z,20.40
2018-08-23T05:55:15.557Z,20.17
2018-08-23T05:58:23.801Z,17.83
2018-08-23T06:01:28.066Z,18.80
2018-08-23T06:04:42.293Z,17.33
2018-08-23T06:07:46.573Z,16.77
2018-08-23T06:10:56.282Z,18.33
2018-08-23T06:14:00.562Z,19.03
2018-08-23T06:17:05.525Z,17.67
2018-08-23T06:20:09.805Z,19.60
2018-08-23T06:23:14.452Z,17.67
2018-08-23T06:26:18.678Z,19.10
2018-08-23T06:29:26.365Z,19.30
2018-08-23T06:32:30.613Z,19.57
2018-08-23T06:35:38.143Z,19.37
2018-08-23T06:38:46.453Z,18.53
2018-08-23T06:41:53.712Z,19.23
2018-08-23T06:44:57.925Z,18.73
2018-08-23T06:48:03.778Z,17.77
2018-08-23T06:51:11.257Z,18.37
2018-08-23T06:54:15.517Z,15.30
2018-08-23T06:57:19.775Z,19.03
2018-08-23T07:00:26.259Z,18.83
2018-08-23T07:03:30.536Z,18.13
2018-08-23T07:06:36.260Z,16.40
2018-08-23T07:09:42.364Z,16.47
2018-08-23T07:12:46.619Z,16.30
2018-08-23T07:15:54.972Z,17.30
2018-08-23T07:18:59.199Z,17.43
2018-08-23T07:22:03.657Z,17.27
2018-08-23T07:25:14.122Z,17.40
2018-08-23T07:28:18.342Z,17.60
2018-08-23T07:31:22.632Z,18.30
2018-08-23T07:34:26.844Z,16.80
2018-08-23T07:37:33.361Z,15.70
2018-08-23T07:40:37.602Z,17.27
2018-08-23T07:43:41.822Z,18.27
2018-08-23T07:46:46.054Z,18.87
2018-08-23T07:49:51.304Z,19.90
2018-08-23T07:52:55.987Z,19.77
2018-08-23T07:56:18.856Z,20.43
2018-08-23T07:59:23.174Z,20.73
2018-08-23T08:02:28.444Z,20.37
2018-08-23T08:05:34.761Z,19.50
2018-08-23T08:08:42.614Z,21.37
2018-08-23T08:11:52.878Z,21.47
2018-08-23T08:14:57.644Z,20.53
2018-08-23T08:18:18.430Z,20.30
2018-08-23T08:21:22.689Z,22.20
2018-08-23T08:24:26.941Z,23.77
2018-08-23T08:27:31.291Z,21.43
2018-08-23T08:30:42.517Z,21.83
2018-08-23T08:33:46.750Z,20.80
2018-08-23T08:36:51.008Z,20.50
2018-08-23T08:39:55.289Z,18.83
2018-08-23T08:42:59.521Z,18.67
2018-08-23T08:46:03.782Z,17.97
2018-08-23T08:49:08.017Z,17.20
2018-08-23T08:52:12.263Z,17.97
2018-08-23T08:55:17.677Z,17.77
2018-08-23T08:58:21.909Z,17.53
2018-08-23T09:01:27.194Z,19.03
2018-08-23T09:04:35.345Z,18.13
2018-08-23T09:07:41.426Z,17.70
2018-08-23T09:10:45.685Z,19.53
2018-08-23T09:13:50.265Z,20.80
2018-08-23T09:16:54.749Z,21.20
2018-08-23T09:20:04.626Z,20.83
2018-08-23T09:23:08.893Z,20.37
2018-08-23T09:26:13.127Z,18.90
2018-08-23T09:29:34.512Z,25.67
2018-08-23T09:32:38.897Z,24.60
2018-08-23T09:35:43.154Z,23.93
2018-08-23T09:38:47.433Z,20.70
2018-08-23T09:41:51.657Z,15.10
2018-08-23T09:45:07.597Z,18.33
2018-08-23T09:48:11.873Z,20.57
2018-08-23T09:51:21.795Z,21.97
2018-08-23T09:54:27.977Z,23.33
2018-08-23T09:57:32.265Z,23.60
2018-08-23T10:00:42.629Z,22.53
2018-08-23T10:03:52.177Z,23.07
2018-08-23T10:07:02.848Z,23.47
2018-08-23T10:10:12.388Z,24.03
2018-08-23T10:13:21.933Z,24.53
2018-08-23T10:16:31.489Z,23.20
2018-08-23T10:19:41.037Z,21.50
2018-08-23T10:22:46.274Z,21.50
2018-08-23T10:25:51.743Z,21.03
2018-08-23T10:28:56.154Z,20.03
2018-08-23T10:32:00.472Z,22.10
2018-08-23T10:35:04.790Z,23.50
2018-08-23T10:38:09.145Z,20.77
2018-08-23T10:41:13.433Z,19.63
2018-08-23T10:44:17.747Z,19.60
2018-08-23T10:48:29.098Z,21.43
2018-08-23T10:51:33.382Z,19.63
2018-08-23T10:54:37.642Z,19.70
2018-08-23T10:57:41.948Z,18.30
2018-08-23T11:00:46.193Z,18.83
2018-08-23T11:03:50.428Z,18.90
2018-08-23T11:06:58.997Z,17.67
2018-08-23T11:10:08.395Z,17.90
2018-08-23T11:13:17.965Z,15.63
2018-08-23T11:16:27.513Z,15.97
2018-08-23T11:19:36.995Z,15.63
2018-08-23T11:22:41.249Z,14.30
2018-08-23T11:25:45.505Z,14.47
2018-08-23T11:28:50.421Z,13.60
2018-08-23T11:31:54.668Z,13.83
2018-08-23T11:34:58.959Z,14.20
2018-08-23T11:38:03.267Z,13.90
2018-08-23T11:41:07.509Z,13.90
2018-08-23T11:44:11.750Z,15.00
2018-08-23T11:47:15.984Z,16.70
2018-08-23T11:50:20.225Z,16.07
2018-08-23T11:53:24.562Z,14.33
2018-08-23T11:56:28.723Z,16.77
2018-08-23T11:59:32.965Z,14.20
2018-08-23T12:02:37.212Z,16.47
2018-08-23T12:05:41.452Z,17.87
2018-08-23T12:08:45.791Z,17.47
2018-08-23T12:11:50.030Z,17.27
2018-08-23T12:14:55.188Z,15.93
2018-08-23T12:17:59.694Z,16.03
2018-08-23T12:21:04.082Z,17.30
2018-08-23T12:24:08.306Z,18.43
2018-08-23T12:27:12.573Z,17.57
2018-08-23T12:30:16.830Z,17.47
2018-08-23T12:33:21.112Z,17.30
2018-08-23T12:36:30.479Z,17.80
2018-08-23T12:39:40.113Z,20.80
2018-08-23T12:42:47.458Z,20.17
2018-08-23T12:45:51.719Z,22.07
2018-08-23T12:48:58.804Z,23.57
2018-08-23T12:52:03.085Z,22.90
2018-08-23T12:55:07.443Z,26.47
2018-08-23T12:58:13.311Z,26.63
2018-08-23T13:01:17.808Z,26.20
2018-08-23T13:04:22.131Z,25.33
2018-08-23T13:07:26.394Z,22.67
2018-08-23T13:10:30.765Z,22.43
2018-08-23T13:13:35.049Z,24.17
2018-08-23T13:16:39.329Z,25.20
2018-08-23T13:19:43.627Z,22.63
2018-08-23T13:22:47.947Z,22.03
2018-08-23T13:25:55.650Z,20.60
2018-08-23T13:28:59.911Z,19.03
2018-08-23T13:32:04.242Z,18.00
2018-08-23T13:35:08.494Z,15.40
2018-08-23T13:38:12.765Z,13.50
2018-08-23T13:41:17.101Z,13.07
2018-08-23T13:44:21.370Z,14.20
2018-08-23T13:47:25.656Z,14.30
2018-08-23T13:50:29.928Z,14.67
2018-08-23T13:53:34.209Z,15.10
2018-08-23T13:56:38.805Z,15.40
2018-08-23T13:59:43.301Z,17.83
2018-08-23T14:02:47.635Z,18.97
2018-08-23T14:05:52.241Z,19.07
2018-08-23T14:08:56.554Z,21.03
2018-08-23T14:12:00.785Z,22.17
2018-08-23T14:15:05.054Z,21.83
2018-08-23T14:18:09.868Z,22.27
2018-08-23T14:21:14.145Z,23.20
2018-08-23T14:24:19.979Z,21.57
2018-08-23T14:27:24.409Z,22.53
2018-08-23T14:30:28.766Z,21.20
2018-08-23T14:33:33.157Z,22.30
2018-08-23T14:36:38.445Z,22.07
2018-08-23T14:39:43.101Z,21.33
2018-08-23T14:42:47.557Z,22.97
2018-08-23T14:45:52.078Z,22.47
2018-08-23T14:48:56.926Z,20.73
2018-08-23T14:52:01.648Z,20.40
2018-08-23T14:55:06.451Z,22.20
2018-08-23T14:58:11.891Z,19.77
2018-08-23T15:01:16.198Z,19.93
2018-08-23T15:04:20.558Z,19.67
2018-08-23T15:07:24.801Z,17.73
2018-08-23T15:10:29.123Z,18.17
2018-08-23T15:13:33.390Z,17.07
2018-08-23T15:16:37.685Z,18.23
2018-08-23T15:19:41.933Z,16.63
2018-08-23T15:22:45.304Z,16.93
2018-08-23T15:25:49.585Z,17.10
2018-08-23T15:28:53.886Z,16.47
2018-08-23T15:31:58.169Z,15.73
2018-08-23T15:35:02.570Z,16.43
2018-08-23T15:38:07.409Z,16.77
2018-08-23T15:41:11.701Z,16.20
2018-08-23T15:44:15.968Z,15.40
2018-08-23T15:47:20.334Z,16.43
2018-08-23T15:50:25.484Z,17.67
2018-08-23T15:53:29.773Z,16.53
2018-08-23T15:56:34.076Z,19.27
2018-08-23T15:59:38.328Z,21.07
2018-08-23T16:02:42.585Z,17.00
2018-08-23T16:05:46.846Z,17.23
2018-08-23T16:08:51.128Z,17.57
2018-08-23T16:11:55.357Z,16.63
2018-08-23T16:14:59.630Z,16.60
2018-08-23T16:19:11.853Z,17.10
2018-08-23T16:22:16.095Z,18.63
2018-08-23T16:25:20.373Z,19.33
2018-08-23T16:28:24.641Z,38.23
2018-08-23T16:31:28.888Z,20.03
2018-08-23T16:34:33.189Z,18.80
2018-08-23T16:37:37.545Z,19.47
2018-08-23T16:40:41.782Z,18.73
2018-08-23T16:43:46.005Z,18.73
2018-08-23T16:46:50.296Z,18.07
2018-08-23T16:49:54.597Z,18.33
2018-08-23T16:52:58.901Z,18.40
2018-08-23T16:56:03.174Z,20.27
2018-08-23T16:59:07.413Z,18.77
2018-08-23T17:02:11.652Z,19.10
2018-08-23T17:05:15.892Z,18.80
2018-08-23T17:08:20.180Z,19.20
2018-08-23T17:11:24.453Z,19.80
2018-08-23T17:14:28.773Z,20.63
2018-08-23T17:17:34.325Z,19.97
2018-08-23T17:20:38.597Z,20.40
2018-08-23T17:23:42.896Z,19.60
2018-08-23T17:26:47.323Z,19.37
2018-08-23T17:29:51.750Z,20.40
2018-08-23T17:32:56.055Z,18.70
2018-08-23T17:36:00.470Z,16.90
2018-08-23T17:39:06.469Z,18.93
2018-08-23T17:42:10.789Z,19.43
2018-08-23T17:45:15.481Z,19.10
2018-08-23T17:48:20.477Z,20.63
2018-08-23T17:51:26.059Z,21.10
2018-08-23T17:54:31.082Z,21.13
2018-08-23T17:57:35.461Z,21.57
2018-08-23T18:00:40.051Z,19.97
2018-08-23T18:03:44.620Z,20.07
2018-08-23T18:06:49.026Z,18.60
2018-08-23T18:09:53.386Z,18.90
2018-08-23T18:12:57.868Z,18.60
2018-08-23T18:16:07.473Z,18.97
2018-08-23T18:19:12.306Z,18.30
2018-08-23T18:22:16.853Z,20.07
2018-08-23T18:25:21.153Z,20.03
2018-08-23T18:28:25.373Z,19.53
2018-08-23T18:31:29.651Z,19.67
2018-08-23T18:34:33.953Z,20.63
2018-08-23T18:37:38.621Z,19.50
2018-08-23T18:40:42.834Z,21.33
2018-08-23T18:43:47.070Z,20.53
2018-08-23T18:46:51.341Z,20.00
2018-08-23T18:49:55.609Z,20.43
2018-08-23T18:52:59.905Z,20.10
2018-08-23T18:56:04.764Z,20.00
2018-08-23T18:59:09.050Z,20.73
2018-08-23T19:02:13.293Z,20.73
2018-08-23T19:05:17.568Z,20.83
2018-08-23T19:08:21.835Z,22.13
2018-08-23T19:11:26.143Z,22.03
2018-08-23T19:14:30.458Z,22.83
2018-08-23T19:17:36.276Z,23.57
2018-08-23T19:20:40.601Z,25.47
2018-08-23T19:23:44.872Z,27.67
2018-08-23T19:26:49.111Z,25.40
2018-08-23T19:29:53.338Z,26.80
2018-08-23T19:32:57.569Z,18.67
2018-08-23T19:36:01.878Z,16.40
2018-08-23T19:39:10.362Z,18.93
2018-08-23T19:42:14.614Z,21.17
2018-08-23T19:45:18.865Z,22.57
2018-08-23T19:48:23.162Z,21.23
2018-08-23T19:51:27.405Z,21.80
2018-08-23T19:54:31.637Z,21.43
2018-08-23T19:57:35.864Z,20.10
2018-08-23T20:00:40.107Z,20.20
2018-08-23T20:03:44.365Z,17.00
2018-08-23T20:06:48.695Z,15.90
2018-08-23T20:09:52.868Z,15.20
2018-08-23T20:12:57.116Z,16.00
2018-08-23T20:16:01.352Z,15.17
2018-08-23T20:19:06.002Z,14.90
2018-08-23T20:22:10.221Z,14.17
2018-08-23T20:25:14.491Z,13.80
2018-08-23T20:28:19.097Z,13.03
2018-08-23T20:31:23.369Z,13.30
2018-08-23T20:34:27.644Z,14.50
2018-08-23T20:37:31.858Z,15.83
2018-08-23T20:40:36.114Z,17.77
2018-08-23T20:43:40.329Z,18.57
2018-08-23T20:46:44.611Z,20.37
2018-08-23T20:49:48.856Z,21.90
2018-08-23T20:52:53.115Z,23.80
2018-08-23T20:55:57.353Z,24.03
2018-08-23T20:59:01.623Z,25.20
2018-08-23T21:02:05.870Z,26.37
2018-08-23T21:05:10.113Z,26.33
2018-08-23T21:08:14.365Z,28.80
2018-08-23T21:11:18.604Z,29.43
2018-08-23T21:14:22.844Z,30.27
2018-08-23T21:17:27.093Z,29.57
2018-08-23T21:20:31.333Z,31.13
2018-08-23T21:23:35.596Z,31.97
2018-08-23T21:26:39.841Z,32.40
2018-08-23T21:29:44.070Z,33.30
2018-08-23T21:32:48.302Z,28.87
2018-08-23T21:35:52.558Z,21.93
2018-08-23T21:38:56.758Z,5.07
2018-08-23T21:42:00.985Z,4.80
2018-08-23T21:45:05.296Z,4.83
2018-08-23T21:48:09.566Z,5.00
2018-08-23T21:51:13.806Z,5.27
2018-08-23T21:54:18.066Z,5.07
2018-08-23T21:57:22.479Z,4.77
2018-08-23T22:00:26.805Z,3.63
2018-08-23T22:03:31.028Z,4.07
2018-08-23T22:06:35.285Z,4.03
2018-08-23T22:09:39.558Z,3.70
2018-08-23T22:12:43.809Z,4.27
2018-08-23T22:15:48.837Z,3.50
2018-08-23T22:18:53.068Z,3.97
2018-08-23T22:21:57.280Z,4.13
2018-08-23T22:25:01.561Z,4.40
2018-08-23T22:28:06.328Z,4.47
2018-08-23T22:31:10.582Z,4.33
2018-08-23T22:34:14.824Z,4.97
2018-08-23T22:37:19.045Z,4.70
2018-08-23T22:40:23.276Z,4.67
2018-08-23T22:43:27.497Z,4.20
2018-08-23T22:46:31.733Z,4.30
2018-08-23T22:49:35.995Z,3.80
2018-08-23T22:52:40.211Z,3.40
2018-08-23T22:55:44.440Z,2.80
2018-08-23T22:58:48.704Z,2.77
2018-08-23T23:01:52.949Z,2.20
2018-08-23T23:04:57.168Z,2.87
2018-08-23T23:08:06.645Z,2.10
2018-08-23T23:11:10.860Z,1.90
2018-08-23T23:14:15.113Z,1.70
2018-08-23T23:17:19.344Z,1.63
2018-08-23T23:20:23.601Z,2.10
2018-08-23T23:23:27.821Z,2.30
2018-08-23T23:26:32.052Z,1.93
2018-08-23T23:29:36.437Z,2.23
2018-08-23T23:32:40.683Z,2.60
2018-08-23T23:35:44.906Z,2.47
2018-08-23T23:38:49.133Z,2.50
2018-08-23T23:41:53.349Z,1.70
2018-08-23T23:44:57.566Z,1.60
2018-08-23T23:48:01.793Z,1.50
2018-08-23T23:51:06.376Z,1.40
2018-08-23T23:54:10.600Z,1.00
2018-08-23T23:57:14.820Z,1.00
